createdAt,value
2022-10-31T00:01:24.175Z,87.82
2022-10-31T00:03:51.139Z,88.01
2022-10-31T00:06:21.089Z,87.99
2022-10-31T00:09:00.082Z,87.89
2022-10-31T00:11:27.664Z,88.19
2022-10-31T00:13:55.146Z,88.22
2022-10-31T00:16:25.555Z,88.30
2022-10-31T00:18:57.914Z,87.92
2022-10-31T00:21:26.487Z,88.22
2022-10-31T00:23:53.738Z,88.12
2022-10-31T00:26:20.947Z,88.40
2022-10-31T00:28:48.216Z,88.51
2022-10-31T00:31:15.827Z,88.36
2022-10-31T00:33:43.225Z,87.93
2022-10-31T00:36:16.004Z,88.01
2022-10-31T00:38:43.638Z,88.32
2022-10-31T00:41:16.986Z,88.20
2022-10-31T00:43:44.828Z,88.37
2022-10-31T00:46:13.254Z,88.24
2022-10-31T00:48:40.461Z,88.03
2022-10-31T00:51:07.767Z,88.24
2022-10-31T00:53:34.927Z,88.21
2022-10-31T00:56:01.799Z,88.23
2022-10-31T00:58:28.688Z,88.25
2022-10-31T01:00:56.307Z,88.22
2022-10-31T01:03:30.275Z,88.41
2022-10-31T01:06:12.634Z,88.31
2022-10-31T01:08:40.115Z,88.88
2022-10-31T01:11:23.921Z,88.58
2022-10-31T01:13:55.200Z,88.22
2022-10-31T01:16:26.234Z,88.43
2022-10-31T01:18:54.227Z,88.28
2022-10-31T01:21:25.213Z,88.11
2022-10-31T01:23:55.473Z,88.44
2022-10-31T01:26:28.918Z,88.01
2022-10-31T01:28:59.221Z,88.05
2022-10-31T01:31:30.819Z,88.18
2022-10-31T01:33:58.724Z,88.15
2022-10-31T01:36:32.337Z,88.38
2022-10-31T01:39:03.070Z,88.59
2022-10-31T01:41:33.538Z,88.45
2022-10-31T01:44:12.989Z,88.50
2022-10-31T01:47:08.521Z,88.48
2022-10-31T01:49:56.122Z,88.75
2022-10-31T01:52:37.674Z,88.32
2022-10-31T01:55:07.950Z,88.32
2022-10-31T01:57:39.164Z,88.15
2022-10-31T02:00:10.632Z,88.00
2022-10-31T02:02:37.613Z,88.00
2022-10-31T02:05:10.750Z,87.88
2022-10-31T02:07:55.678Z,88.28
2022-10-31T02:10:24.162Z,87.94
2022-10-31T02:12:57.775Z,88.14
2022-10-31T02:15:25.063Z,88.00
2022-10-31T02:17:52.900Z,87.75
2022-10-31T02:20:26.324Z,87.82
2022-10-31T02:23:36.527Z,88.70
2022-10-31T02:26:18.457Z,88.24
2022-10-31T02:29:09.868Z,88.01
2022-10-31T02:32:02.183Z,88.57
2022-10-31T02:34:55.766Z,87.91
2022-10-31T02:37:51.194Z,88.22
2022-10-31T02:40:31.885Z,87.57
2022-10-31T02:43:29.988Z,87.71
2022-10-31T02:46:16.285Z,87.92
2022-10-31T02:48:46.031Z,87.19
2022-10-31T02:51:13.742Z,87.91
2022-10-31T02:53:40.727Z,87.67
2022-10-31T02:56:17.047Z,88.00
2022-10-31T02:59:01.983Z,87.99
2022-10-31T03:02:13.917Z,87.88
2022-10-31T03:05:23.967Z,88.04
2022-10-31T03:08:09.795Z,88.43
2022-10-31T03:10:45.263Z,88.37
2022-10-31T03:13:25.407Z,87.90
2022-10-31T03:16:07.425Z,88.58
2022-10-31T03:18:44.393Z,88.19
2022-10-31T03:21:21.072Z,87.84
2022-10-31T03:23:51.846Z,88.57
2022-10-31T03:26:21.105Z,87.57
2022-10-31T03:29:03.274Z,87.92
2022-10-31T03:31:39.850Z,87.83
2022-10-31T03:34:09.123Z,88.14
2022-10-31T03:36:39.696Z,87.82
2022-10-31T03:39:11.654Z,87.46
2022-10-31T03:41:46.090Z,87.70
2022-10-31T03:44:20.002Z,88.40
2022-10-31T03:46:47.254Z,88.63
2022-10-31T03:49:15.175Z,87.57
2022-10-31T03:52:00.419Z,87.79
2022-10-31T03:54:44.552Z,87.59
2022-10-31T03:57:39.992Z,88.20
2022-10-31T04:00:13.681Z,87.57
2022-10-31T04:03:00.618Z,87.95
2022-10-31T04:05:29.530Z,88.48
2022-10-31T04:07:58.788Z,87.94
2022-10-31T04:10:31.993Z,88.82
2022-10-31T04:13:09.381Z,87.44
2022-10-31T04:15:38.431Z,88.24
2022-10-31T04:18:06.566Z,87.92
2022-10-31T04:20:36.891Z,88.92
2022-10-31T04:23:04.907Z,88.20
2022-10-31T04:25:32.090Z,88.35
2022-10-31T04:27:59.326Z,88.46
2022-10-31T04:30:26.482Z,88.60
2022-10-31T04:32:53.354Z,87.97
2022-10-31T04:35:20.240Z,88.12
2022-10-31T04:37:47.124Z,88.41
2022-10-31T04:40:14.046Z,88.16
2022-10-31T04:42:40.923Z,88.63
2022-10-31T04:45:08.195Z,87.94
2022-10-31T04:47:35.107Z,88.11
2022-10-31T04:50:03.101Z,88.23
2022-10-31T04:52:30.009Z,87.78
2022-10-31T04:54:56.883Z,88.04
2022-10-31T04:57:23.779Z,88.72
2022-10-31T04:59:50.781Z,88.04
2022-10-31T05:02:17.659Z,87.42
2022-10-31T05:04:44.583Z,88.39
2022-10-31T05:07:11.509Z,88.73
2022-10-31T05:09:39.158Z,88.46
2022-10-31T05:12:06.203Z,88.38
2022-10-31T05:14:33.074Z,87.69
2022-10-31T05:16:59.934Z,87.68
2022-10-31T05:19:26.797Z,87.72
2022-10-31T05:21:53.688Z,88.09
2022-10-31T05:24:22.585Z,88.58
2022-10-31T05:26:50.452Z,88.51
2022-10-31T05:29:17.509Z,87.94
2022-10-31T05:31:44.387Z,88.55
2022-10-31T05:34:11.277Z,87.93
2022-10-31T05:36:38.213Z,88.57
2022-10-31T05:39:05.113Z,88.14
2022-10-31T05:41:32.155Z,88.73
2022-10-31T05:43:59.023Z,88.98
2022-10-31T05:46:25.960Z,89.43
2022-10-31T05:48:52.862Z,88.70
2022-10-31T05:51:19.738Z,89.14
2022-10-31T05:53:48.424Z,89.04
2022-10-31T05:56:15.302Z,88.46
2022-10-31T05:58:42.204Z,88.69
2022-10-31T06:01:09.141Z,88.19
2022-10-31T06:03:36.069Z,89.47
2022-10-31T06:06:03.237Z,88.89
2022-10-31T06:08:30.138Z,89.30
2022-10-31T06:10:57.136Z,89.51
2022-10-31T06:13:24.089Z,88.74
2022-10-31T06:15:51.075Z,88.63
2022-10-31T06:18:17.989Z,88.70
2022-10-31T06:20:44.867Z,89.16
2022-10-31T06:23:11.850Z,88.92
2022-10-31T06:25:38.777Z,89.45
2022-10-31T06:28:06.103Z,89.05
2022-10-31T06:30:33.106Z,89.52
2022-10-31T06:33:05.187Z,89.18
2022-10-31T06:35:32.991Z,89.17
2022-10-31T06:38:00.625Z,89.36
2022-10-31T06:40:27.848Z,88.94
2022-10-31T06:43:00.080Z,89.72
2022-10-31T06:45:27.589Z,89.84
2022-10-31T06:48:16.068Z,89.16
2022-10-31T06:50:43.212Z,89.26
2022-10-31T06:53:12.139Z,89.05
2022-10-31T06:55:39.399Z,89.56
2022-10-31T06:58:06.801Z,89.34
2022-10-31T07:00:34.435Z,89.57
2022-10-31T07:03:05.907Z,90.10
2022-10-31T07:05:33.200Z,89.20
2022-10-31T07:08:05.927Z,89.27
2022-10-31T07:10:39.083Z,89.82
2022-10-31T07:13:13.372Z,89.68
2022-10-31T07:15:43.086Z,89.58
2022-10-31T07:18:12.833Z,89.95
2022-10-31T07:20:39.758Z,90.34
2022-10-31T07:23:06.970Z,90.10
2022-10-31T07:25:33.983Z,90.06
2022-10-31T07:28:01.211Z,89.89
2022-10-31T07:30:28.425Z,89.51
2022-10-31T07:32:56.304Z,89.46
2022-10-31T07:35:27.553Z,89.93
2022-10-31T07:37:55.636Z,90.40
2022-10-31T07:40:23.977Z,90.54
2022-10-31T07:42:53.456Z,90.25
2022-10-31T07:45:22.286Z,89.95
2022-10-31T07:47:52.294Z,90.33
2022-10-31T07:50:28.036Z,90.49
2022-10-31T07:53:07.996Z,90.66
2022-10-31T07:55:35.561Z,90.77
2022-10-31T07:58:05.994Z,90.85
2022-10-31T08:00:35.505Z,90.50
2022-10-31T08:03:08.429Z,90.64
2022-10-31T08:05:36.318Z,90.53
2022-10-31T08:08:05.027Z,90.49
2022-10-31T08:10:33.008Z,90.77
2022-10-31T08:13:12.042Z,90.36
2022-10-31T08:15:42.103Z,90.50
2022-10-31T08:18:14.892Z,90.65
2022-10-31T08:20:45.477Z,90.43
2022-10-31T08:23:14.516Z,90.50
2022-10-31T08:25:42.727Z,90.96
2022-10-31T08:28:11.999Z,90.87
2022-10-31T08:30:40.420Z,90.90
2022-10-31T08:33:14.388Z,90.96
2022-10-31T08:35:42.288Z,90.71
2022-10-31T08:38:12.311Z,91.53
2022-10-31T08:40:40.113Z,91.05
2022-10-31T08:43:15.044Z,91.36
2022-10-31T08:45:43.749Z,91.10
2022-10-31T08:48:13.818Z,91.18
2022-10-31T08:50:41.047Z,90.78
2022-10-31T08:53:15.308Z,90.73
2022-10-31T08:55:43.972Z,91.12
2022-10-31T08:58:14.524Z,91.39
2022-10-31T09:00:42.281Z,91.04
2022-10-31T09:03:21.811Z,91.22
2022-10-31T09:05:49.146Z,91.07
2022-10-31T09:08:17.328Z,90.98
2022-10-31T09:10:45.849Z,91.01
2022-10-31T09:13:16.674Z,91.56
2022-10-31T09:15:46.747Z,91.35
2022-10-31T09:18:15.826Z,92.05
2022-10-31T09:20:45.023Z,92.11
2022-10-31T09:23:20.849Z,91.61
2022-10-31T09:25:51.025Z,91.55
2022-10-31T09:28:22.003Z,91.63
2022-10-31T09:30:52.022Z,90.97
2022-10-31T09:33:20.033Z,91.78
2022-10-31T09:35:47.081Z,91.31
2022-10-31T09:38:19.830Z,91.71
2022-10-31T09:40:56.181Z,91.72
2022-10-31T09:43:57.700Z,91.48
2022-10-31T09:46:58.042Z,91.54
2022-10-31T09:50:02.008Z,91.65
2022-10-31T09:52:33.311Z,91.90
2022-10-31T09:55:26.132Z,91.82
2022-10-31T09:57:53.336Z,92.55
2022-10-31T10:00:23.250Z,92.25
2022-10-31T10:02:59.041Z,92.18
2022-10-31T10:05:35.255Z,92.68
2022-10-31T10:08:15.366Z,91.92
2022-10-31T10:11:25.350Z,92.20
2022-10-31T10:14:16.257Z,92.17
2022-10-31T10:17:23.266Z,91.98
2022-10-31T10:20:29.550Z,92.25
2022-10-31T10:23:30.887Z,91.94
2022-10-31T10:26:18.283Z,91.08
2022-10-31T10:28:53.014Z,91.11
2022-10-31T10:31:29.322Z,91.30
2022-10-31T10:34:06.565Z,92.09
2022-10-31T10:36:59.149Z,90.88
2022-10-31T10:39:39.359Z,90.68
2022-10-31T10:42:32.785Z,91.05
2022-10-31T10:45:18.822Z,91.20
2022-10-31T10:47:56.234Z,91.17
2022-10-31T10:50:33.619Z,91.64
2022-10-31T10:53:36.488Z,91.86
2022-10-31T10:56:40.826Z,91.11
2022-10-31T10:59:14.487Z,91.25
2022-10-31T11:01:43.220Z,90.72
2022-10-31T11:04:31.490Z,90.99
2022-10-31T11:07:10.793Z,90.38
2022-10-31T11:09:38.953Z,90.60
2022-10-31T11:12:31.462Z,90.40
2022-10-31T11:15:24.486Z,90.43
2022-10-31T11:17:55.323Z,91.25
2022-10-31T11:20:31.273Z,90.83
2022-10-31T11:23:22.310Z,90.34
2022-10-31T11:25:52.342Z,90.29
2022-10-31T11:28:19.277Z,90.53
2022-10-31T11:30:50.354Z,88.99
2022-10-31T11:33:36.578Z,89.85
2022-10-31T11:36:25.570Z,89.77
2022-10-31T11:38:54.031Z,89.22
2022-10-31T11:41:34.757Z,89.88
2022-10-31T11:44:17.465Z,90.11
2022-10-31T11:46:49.883Z,90.20
2022-10-31T11:49:36.822Z,89.35
2022-10-31T11:52:14.962Z,89.62
2022-10-31T11:55:12.377Z,89.81
2022-10-31T11:57:52.899Z,89.85
2022-10-31T12:00:30.549Z,89.08
2022-10-31T12:03:25.027Z,88.62
2022-10-31T12:06:18.775Z,88.48
2022-10-31T12:08:46.636Z,89.07
2022-10-31T12:11:36.565Z,89.08
2022-10-31T12:14:35.338Z,89.42
2022-10-31T12:17:25.988Z,89.35
2022-10-31T12:20:08.098Z,89.53
2022-10-31T12:22:49.619Z,89.44
2022-10-31T12:25:42.087Z,89.62
2022-10-31T12:28:44.921Z,89.11
2022-10-31T12:31:42.451Z,89.63
2022-10-31T12:34:46.178Z,89.61
2022-10-31T12:38:04.077Z,89.65
2022-10-31T12:40:57.261Z,89.15
2022-10-31T12:43:56.561Z,89.46
2022-10-31T12:46:58.057Z,89.51
2022-10-31T12:49:53.280Z,88.95
2022-10-31T12:52:32.231Z,89.17
2022-10-31T12:55:25.208Z,89.48
2022-10-31T12:58:00.430Z,88.97
2022-10-31T13:00:30.489Z,89.17
2022-10-31T13:03:23.255Z,88.72
2022-10-31T13:05:57.686Z,88.86
2022-10-31T13:08:36.875Z,88.88
2022-10-31T13:11:16.982Z,89.38
2022-10-31T13:14:12.447Z,89.00
2022-10-31T13:16:45.176Z,88.74
2022-10-31T13:19:22.432Z,88.78
2022-10-31T13:22:05.232Z,88.51
2022-10-31T13:24:42.725Z,88.55
2022-10-31T13:27:21.747Z,88.70
2022-10-31T13:30:05.105Z,88.84
2022-10-31T13:32:57.350Z,88.81
2022-10-31T13:35:33.071Z,88.99
2022-10-31T13:38:41.127Z,88.73
2022-10-31T13:41:36.155Z,89.10
2022-10-31T13:44:14.533Z,88.89
2022-10-31T13:49:30.649Z,89.20
2022-10-31T13:52:13.125Z,89.23
2022-10-31T13:54:42.224Z,89.36
2022-10-31T13:57:19.919Z,88.96
2022-10-31T14:00:16.124Z,88.93
2022-10-31T14:02:50.039Z,88.99
2022-10-31T14:05:34.703Z,89.21
2022-10-31T14:08:05.088Z,88.27
2022-10-31T14:10:50.935Z,88.34
2022-10-31T14:13:42.551Z,88.49
2022-10-31T14:16:31.028Z,89.37
2022-10-31T14:19:09.291Z,88.49
2022-10-31T14:21:43.129Z,88.58
2022-10-31T14:24:31.724Z,88.75
2022-10-31T14:27:04.005Z,89.11
2022-10-31T14:29:34.079Z,88.69
2022-10-31T14:32:20.871Z,88.89
2022-10-31T14:35:01.405Z,88.37
2022-10-31T14:37:34.832Z,88.54
2022-10-31T14:40:44.886Z,88.96
2022-10-31T14:43:37.963Z,88.47
2022-10-31T14:46:33.559Z,88.50
2022-10-31T14:49:11.943Z,88.62
2022-10-31T14:51:45.162Z,88.46
2022-10-31T14:54:31.228Z,88.52
2022-10-31T14:57:13.649Z,88.89
2022-10-31T14:59:56.838Z,88.75
2022-10-31T15:02:39.160Z,88.62
2022-10-31T15:05:12.254Z,88.68
2022-10-31T15:07:59.563Z,89.03
2022-10-31T15:10:32.873Z,88.92
2022-10-31T15:13:20.853Z,88.93
2022-10-31T15:15:52.016Z,88.98
2022-10-31T15:18:27.509Z,89.05
2022-10-31T15:20:57.167Z,88.92
2022-10-31T15:23:30.110Z,88.84
2022-10-31T15:26:06.167Z,89.01
2022-10-31T15:28:33.290Z,88.89
2022-10-31T15:31:03.036Z,89.20
2022-10-31T15:33:47.878Z,88.88
2022-10-31T15:36:29.207Z,88.91
2022-10-31T15:38:58.682Z,88.87
2022-10-31T15:41:56.450Z,88.97
2022-10-31T15:44:30.853Z,88.90
2022-10-31T15:47:19.591Z,89.17
2022-10-31T15:49:54.984Z,89.13
2022-10-31T15:52:41.106Z,88.89
2022-10-31T15:55:10.651Z,89.30
2022-10-31T15:57:43.946Z,89.24
2022-10-31T16:00:34.617Z,88.87
2022-10-31T16:03:16.564Z,88.84
2022-10-31T16:05:52.895Z,88.63
2022-10-31T16:08:32.142Z,88.94
2022-10-31T16:11:07.953Z,88.90
2022-10-31T16:13:42.198Z,88.75
2022-10-31T16:16:35.726Z,88.94
2022-10-31T16:19:06.982Z,88.78
2022-10-31T16:21:38.394Z,88.95
2022-10-31T16:24:25.833Z,88.70
2022-10-31T16:26:59.106Z,88.95
2022-10-31T16:29:40.621Z,88.90
2022-10-31T16:32:36.341Z,88.79
2022-10-31T16:35:09.239Z,88.81
2022-10-31T16:37:39.687Z,88.72
2022-10-31T16:40:07.562Z,88.91
2022-10-31T16:42:34.463Z,88.66
2022-10-31T16:45:01.516Z,88.91
2022-10-31T16:47:28.660Z,89.10
2022-10-31T16:50:00.616Z,88.93
2022-10-31T16:52:28.342Z,88.79
2022-10-31T16:54:58.334Z,89.08
2022-10-31T16:57:30.912Z,89.08
2022-10-31T16:59:58.760Z,89.11
2022-10-31T17:02:26.153Z,88.75
2022-10-31T17:04:55.799Z,88.97
2022-10-31T17:07:23.857Z,89.00
2022-10-31T17:09:50.746Z,89.36
2022-10-31T17:12:23.005Z,89.34
2022-10-31T17:14:52.915Z,89.41
2022-10-31T17:17:19.813Z,89.15
2022-10-31T17:19:46.816Z,89.44
2022-10-31T17:22:15.519Z,89.19
2022-10-31T17:24:42.597Z,89.38
2022-10-31T17:27:09.718Z,89.37
2022-10-31T17:29:36.726Z,89.39
2022-10-31T17:32:04.202Z,89.49
2022-10-31T17:34:31.729Z,89.81
2022-10-31T17:36:58.722Z,89.66
2022-10-31T17:39:25.965Z,89.36
2022-10-31T17:41:53.056Z,89.68
2022-10-31T17:44:20.060Z,89.24
2022-10-31T17:46:47.032Z,88.93
2022-10-31T17:49:14.098Z,89.51
2022-10-31T17:51:40.979Z,89.15
2022-10-31T17:54:09.067Z,89.36
2022-10-31T17:56:35.985Z,89.20
2022-10-31T17:59:03.360Z,88.96
2022-10-31T18:01:30.464Z,89.48
2022-10-31T18:03:58.065Z,89.49
2022-10-31T18:06:24.935Z,89.65
2022-10-31T18:08:51.904Z,90.09
2022-10-31T18:11:21.973Z,90.04
2022-10-31T18:13:53.841Z,89.63
2022-10-31T18:16:20.737Z,89.75
2022-10-31T18:18:59.155Z,89.70
2022-10-31T18:21:26.598Z,90.32
2022-10-31T18:23:58.100Z,89.63
2022-10-31T18:26:27.007Z,89.72
2022-10-31T18:28:54.550Z,89.50
2022-10-31T18:31:21.793Z,89.91
2022-10-31T18:33:48.695Z,89.39
2022-10-31T18:36:15.613Z,89.94
2022-10-31T18:38:46.740Z,89.71
2022-10-31T18:41:15.138Z,89.74
2022-10-31T18:43:42.583Z,89.57
2022-10-31T18:46:14.733Z,90.48
2022-10-31T18:48:43.959Z,89.99
2022-10-31T18:51:14.279Z,90.19
2022-10-31T18:53:41.448Z,89.54
2022-10-31T18:56:10.890Z,90.53
2022-10-31T18:58:38.002Z,89.73
2022-10-31T19:01:10.821Z,89.92
2022-10-31T19:03:38.862Z,90.13
2022-10-31T19:06:07.448Z,89.92
2022-10-31T19:08:35.855Z,90.16
2022-10-31T19:11:12.744Z,91.03
2022-10-31T19:13:41.346Z,90.00
2022-10-31T19:16:13.879Z,89.81
2022-10-31T19:18:42.222Z,89.76
2022-10-31T19:21:16.102Z,90.84
2022-10-31T19:23:45.012Z,90.02
2022-10-31T19:26:12.845Z,90.13
2022-10-31T19:28:41.965Z,90.46
2022-10-31T19:31:09.689Z,90.03
2022-10-31T19:33:38.262Z,90.71
2022-10-31T19:36:10.485Z,90.38
2022-10-31T19:38:39.967Z,89.85
2022-10-31T19:41:13.613Z,90.55
2022-10-31T19:43:41.043Z,90.33
2022-10-31T19:46:17.537Z,90.60
2022-10-31T19:48:54.978Z,90.33
2022-10-31T19:51:22.478Z,90.43
2022-10-31T19:53:49.787Z,90.33
2022-10-31T19:56:19.606Z,90.50
2022-10-31T19:58:46.824Z,89.74
2022-10-31T20:01:20.715Z,89.89
2022-10-31T20:03:49.056Z,90.03
2022-10-31T20:06:23.100Z,89.59
2022-10-31T20:08:50.442Z,89.08
2022-10-31T20:11:17.575Z,89.32
2022-10-31T20:13:44.709Z,89.31
2022-10-31T20:16:15.075Z,88.72
2022-10-31T20:18:43.410Z,89.26
2022-10-31T20:21:14.341Z,89.26
2022-10-31T20:23:41.686Z,88.78
2022-10-31T20:26:11.577Z,89.04
2022-10-31T20:28:43.269Z,88.93
2022-10-31T20:31:16.373Z,88.79
2022-10-31T20:33:43.571Z,88.91
2022-10-31T20:36:10.636Z,89.21
2022-10-31T20:38:39.530Z,88.86
2022-10-31T20:41:09.373Z,89.17
2022-10-31T20:43:36.754Z,88.86
2022-10-31T20:46:13.361Z,89.12
2022-10-31T20:48:40.717Z,88.84
2022-10-31T20:53:49.613Z,88.64
2022-10-31T20:56:19.835Z,88.53
2022-10-31T20:58:47.240Z,88.99
2022-10-31T21:01:21.269Z,88.62
2022-10-31T21:03:49.750Z,88.65
2022-10-31T21:06:18.738Z,88.50
2022-10-31T21:08:46.135Z,88.55
2022-10-31T21:11:20.430Z,88.31
2022-10-31T21:13:49.292Z,88.77
2022-10-31T21:16:36.195Z,88.70
2022-10-31T21:19:04.721Z,88.65
2022-10-31T21:21:36.104Z,88.84
2022-10-31T21:24:14.955Z,89.05
2022-10-31T21:26:46.379Z,88.45
2022-10-31T21:29:15.231Z,88.95
2022-10-31T21:31:42.962Z,88.98
2022-10-31T21:34:10.364Z,88.67
2022-10-31T21:36:37.794Z,88.91
2022-10-31T21:39:07.050Z,88.55
2022-10-31T21:41:34.140Z,88.91
2022-10-31T21:44:01.014Z,89.02
2022-10-31T21:46:33.328Z,88.54
2022-10-31T21:49:03.644Z,88.89
2022-10-31T21:51:34.401Z,88.71
2022-10-31T21:54:20.729Z,88.55
2022-10-31T21:56:48.144Z,88.64
2022-10-31T21:59:15.044Z,88.28
2022-10-31T22:01:42.111Z,88.78
2022-10-31T22:04:09.442Z,88.29
2022-10-31T22:06:37.120Z,88.54
2022-10-31T22:09:07.017Z,87.88
2022-10-31T22:11:34.656Z,88.28
2022-10-31T22:14:02.677Z,88.18
2022-10-31T22:16:33.418Z,87.81
2022-10-31T22:19:05.068Z,87.91
2022-10-31T22:21:38.769Z,87.88
2022-10-31T22:24:07.726Z,87.77
2022-10-31T22:26:35.536Z,87.65
2022-10-31T22:29:05.623Z,88.34
2022-10-31T22:31:34.059Z,87.47
2022-10-31T22:34:01.466Z,87.95
2022-10-31T22:36:30.623Z,87.22
2022-10-31T22:38:58.476Z,88.10
2022-10-31T22:41:29.027Z,87.89
2022-10-31T22:43:57.175Z,88.13
2022-10-31T22:46:30.142Z,87.84
2022-10-31T22:49:01.169Z,88.08
2022-10-31T22:51:32.444Z,86.90
2022-10-31T22:54:00.041Z,86.33
2022-10-31T22:56:31.205Z,87.49
2022-10-31T22:58:59.223Z,87.27
2022-10-31T23:01:31.412Z,86.79
2022-10-31T23:03:58.762Z,87.01
2022-10-31T23:06:32.460Z,85.81
2022-10-31T23:09:03.175Z,85.00
2022-10-31T23:11:34.524Z,86.31
2022-10-31T23:14:15.740Z,86.93
2022-10-31T23:16:53.897Z,87.54
2022-10-31T23:19:29.712Z,87.57
2022-10-31T23:22:03.862Z,88.12
2022-10-31T23:24:45.357Z,88.33
2022-10-31T23:27:22.359Z,88.57
2022-10-31T23:29:56.477Z,88.47
2022-10-31T23:32:35.546Z,88.18
2022-10-31T23:35:09.247Z,88.39
2022-10-31T23:37:38.408Z,88.64
2022-10-31T23:40:08.054Z,88.41
2022-10-31T23:42:35.010Z,88.87
2022-10-31T23:45:02.078Z,89.06
2022-10-31T23:47:28.957Z,89.19
2022-10-31T23:49:55.825Z,89.03
2022-10-31T23:52:22.694Z,89.13
2022-10-31T23:54:49.633Z,88.98
2022-10-31T23:57:17.272Z,89.71
2022-10-31T23:59:44.371Z,89.74
